createdAt,value
2024-01-19T00:01:12.288Z,5.60
2024-01-19T00:03:42.539Z,5.70
2024-01-19T00:06:12.183Z,5.50
2024-01-19T00:08:42.027Z,5.70
2024-01-19T00:11:19.436Z,5.60
2024-01-19T00:13:49.108Z,5.70
2024-01-19T00:16:19.518Z,5.60
2024-01-19T00:18:49.120Z,5.60
2024-01-19T00:21:18.743Z,5.70
2024-01-19T00:23:48.608Z,5.70
2024-01-19T00:26:18.788Z,5.70
2024-01-19T00:28:49.066Z,5.80
2024-01-19T00:31:18.684Z,5.80
2024-01-19T00:33:48.241Z,5.70
2024-01-19T00:36:17.872Z,5.70
2024-01-19T00:38:47.550Z,5.70
2024-01-19T00:41:18.273Z,5.60
2024-01-19T00:43:47.957Z,5.50
2024-01-19T00:46:17.685Z,5.40
2024-01-19T00:48:47.314Z,5.40
2024-01-19T00:51:18.172Z,5.20
2024-01-19T00:53:47.744Z,5.10
2024-01-19T00:56:18.940Z,5.50
2024-01-19T00:58:48.669Z,5.50
2024-01-19T01:01:18.309Z,5.50
2024-01-19T01:03:49.641Z,5.50
2024-01-19T01:06:19.526Z,5.70
2024-01-19T01:08:49.443Z,5.70
2024-01-19T01:11:19.170Z,5.60
2024-01-19T01:13:48.992Z,5.60
2024-01-19T01:16:18.512Z,5.60
2024-01-19T01:18:48.308Z,5.40
2024-01-19T01:21:18.419Z,5.50
2024-01-19T01:23:48.047Z,5.80
2024-01-19T01:26:17.612Z,5.40
2024-01-19T01:28:47.382Z,5.40
2024-01-19T01:31:17.120Z,5.40
2024-01-19T01:33:46.788Z,5.30
2024-01-19T01:36:16.876Z,5.50
2024-01-19T01:38:46.406Z,5.30
2024-01-19T01:41:16.117Z,5.40
2024-01-19T01:43:45.749Z,5.40
2024-01-19T01:46:15.329Z,5.30
2024-01-19T01:48:45.531Z,5.20
2024-01-19T01:51:16.599Z,5.10
2024-01-19T01:53:46.438Z,5.10
2024-01-19T01:56:16.869Z,5.10
2024-01-19T01:58:46.863Z,5.00
2024-01-19T02:01:16.581Z,5.00
2024-01-19T02:03:46.748Z,4.90
2024-01-19T02:06:16.516Z,5.10
2024-01-19T02:08:46.564Z,4.70
2024-01-19T02:11:16.416Z,5.00
2024-01-19T02:13:45.966Z,4.80
2024-01-19T02:16:15.591Z,4.80
2024-01-19T02:18:45.412Z,5.00
2024-01-19T02:21:15.293Z,4.80
2024-01-19T02:23:50.904Z,4.80
2024-01-19T02:26:20.725Z,4.60
2024-01-19T02:28:50.575Z,4.90
2024-01-19T02:31:20.174Z,5.00
2024-01-19T02:33:49.700Z,5.00
2024-01-19T02:36:19.483Z,4.70
2024-01-19T02:38:49.025Z,4.80
2024-01-19T02:41:18.751Z,4.80
2024-01-19T02:43:48.330Z,4.80
2024-01-19T02:46:20.082Z,4.70
2024-01-19T02:48:49.865Z,4.50
2024-01-19T02:51:19.558Z,4.50
2024-01-19T02:53:49.309Z,4.30
2024-01-19T02:56:19.032Z,4.20
2024-01-19T02:58:48.547Z,4.50
2024-01-19T03:01:18.197Z,4.50
2024-01-19T03:03:47.785Z,4.50
2024-01-19T03:06:17.502Z,4.40
2024-01-19T03:08:47.107Z,4.60
2024-01-19T03:11:16.958Z,4.50
2024-01-19T03:13:46.461Z,4.60
2024-01-19T03:16:16.110Z,4.70
2024-01-19T03:18:45.631Z,4.40
2024-01-19T03:21:15.300Z,4.40
2024-01-19T03:25:46.852Z,4.30
2024-01-19T03:28:16.540Z,4.40
2024-01-19T03:30:46.057Z,4.40
2024-01-19T03:33:15.774Z,4.40
2024-01-19T03:35:45.513Z,4.10
2024-01-19T03:38:15.269Z,4.00
2024-01-19T03:40:44.822Z,3.80
2024-01-19T03:43:14.534Z,3.80
2024-01-19T03:45:44.140Z,4.00
2024-01-19T03:48:14.109Z,3.90
2024-01-19T03:50:43.667Z,3.90
2024-01-19T03:53:13.237Z,4.10
2024-01-19T03:55:42.809Z,4.20
2024-01-19T03:58:12.322Z,3.80
2024-01-19T04:00:41.955Z,3.70
2024-01-19T04:03:11.695Z,3.60
2024-01-19T04:05:41.498Z,3.60
2024-01-19T04:08:11.332Z,3.70
2024-01-19T04:10:40.868Z,3.80
2024-01-19T04:13:10.548Z,3.60
2024-01-19T04:15:40.145Z,3.70
2024-01-19T04:18:09.843Z,3.90
2024-01-19T04:20:39.692Z,4.20
2024-01-19T04:23:09.357Z,4.00
2024-01-19T04:25:38.969Z,3.80
2024-01-19T04:28:08.494Z,3.90
2024-01-19T04:30:38.072Z,4.00
2024-01-19T04:33:07.817Z,3.90
2024-01-19T04:35:37.609Z,3.70
2024-01-19T04:38:07.099Z,3.60
2024-01-19T04:40:36.703Z,3.50
2024-01-19T04:43:06.305Z,3.50
2024-01-19T04:45:35.919Z,3.70
2024-01-19T04:48:05.969Z,3.60
2024-01-19T04:50:35.775Z,3.50
2024-01-19T04:53:05.397Z,3.40
2024-01-19T04:55:34.947Z,3.30
2024-01-19T04:58:04.603Z,3.40
2024-01-19T05:00:34.244Z,3.80
2024-01-19T05:03:04.929Z,3.90
2024-01-19T05:05:34.725Z,3.80
2024-01-19T05:08:04.895Z,3.70
2024-01-19T05:10:35.443Z,3.50
2024-01-19T05:13:05.108Z,3.40
2024-01-19T05:15:34.653Z,3.70
2024-01-19T05:18:04.512Z,3.70
2024-01-19T05:20:34.710Z,3.70
2024-01-19T05:23:04.840Z,3.70
2024-01-19T05:25:34.458Z,3.70
2024-01-19T05:28:04.240Z,3.40
2024-01-19T05:30:33.766Z,3.60
2024-01-19T05:33:03.512Z,3.40
2024-01-19T05:35:33.557Z,3.40
2024-01-19T05:38:03.122Z,3.50
2024-01-19T05:40:32.802Z,3.20
2024-01-19T05:43:02.414Z,3.30
2024-01-19T05:45:31.927Z,3.20
2024-01-19T05:48:01.616Z,3.10
2024-01-19T05:50:31.494Z,3.30
2024-01-19T05:53:01.145Z,3.20
2024-01-19T05:55:30.668Z,3.30
2024-01-19T05:58:00.305Z,3.10
2024-01-19T06:00:31.122Z,3.10
2024-01-19T06:03:00.744Z,3.20
2024-01-19T06:05:30.441Z,3.00
2024-01-19T06:08:00.224Z,3.10
2024-01-19T06:10:29.819Z,3.10
2024-01-19T06:12:59.333Z,2.90
2024-01-19T06:15:28.872Z,3.20
2024-01-19T06:17:58.876Z,3.10
2024-01-19T06:20:28.948Z,3.00
2024-01-19T06:22:58.589Z,2.90
2024-01-19T06:25:28.111Z,3.00
2024-01-19T06:27:59.652Z,2.90
2024-01-19T06:30:29.254Z,2.90
2024-01-19T06:32:59.046Z,2.90
2024-01-19T06:35:28.935Z,2.70
2024-01-19T06:37:58.497Z,2.90
2024-01-19T06:40:28.109Z,2.90
2024-01-19T06:43:00.009Z,2.70
2024-01-19T06:45:28.998Z,2.70
2024-01-19T06:47:58.711Z,2.70
2024-01-19T06:50:28.428Z,2.60
2024-01-19T06:53:00.479Z,2.70
2024-01-19T06:55:30.877Z,2.70
2024-01-19T06:58:12.269Z,2.60
2024-01-19T07:00:41.877Z,2.60
2024-01-19T07:03:11.672Z,2.60
2024-01-19T07:05:44.888Z,2.60
2024-01-19T07:08:14.588Z,2.70
2024-01-19T07:10:44.197Z,2.70
2024-01-19T07:13:13.802Z,2.70
2024-01-19T07:15:43.405Z,2.90
2024-01-19T07:18:13.149Z,2.80
2024-01-19T07:20:44.365Z,2.80
2024-01-19T07:23:14.027Z,2.60
2024-01-19T07:25:43.633Z,2.50
2024-01-19T07:28:13.309Z,2.50
2024-01-19T07:30:42.927Z,2.40
2024-01-19T07:33:19.398Z,2.50
2024-01-19T07:35:43.777Z,2.70
2024-01-19T07:38:13.530Z,2.70
2024-01-19T07:40:43.110Z,2.50
2024-01-19T07:43:12.753Z,2.70
2024-01-19T07:45:42.389Z,2.50
2024-01-19T07:48:12.087Z,2.60
2024-01-19T07:50:41.880Z,2.70
2024-01-19T07:53:12.165Z,2.80
2024-01-19T07:55:41.822Z,2.60
2024-01-19T07:58:11.420Z,2.60
2024-01-19T08:00:40.995Z,2.80
2024-01-19T08:03:11.041Z,2.90
2024-01-19T08:05:40.840Z,2.70
2024-01-19T08:08:10.500Z,2.80
2024-01-19T08:10:40.176Z,2.70
2024-01-19T08:13:09.877Z,2.80
2024-01-19T08:15:39.423Z,3.00
2024-01-19T08:18:09.157Z,3.20
2024-01-19T08:20:38.872Z,3.20
2024-01-19T08:23:08.393Z,3.30
2024-01-19T08:25:37.968Z,3.50
2024-01-19T08:28:07.632Z,3.40
2024-01-19T08:30:37.303Z,3.30
2024-01-19T08:33:07.175Z,3.20
2024-01-19T08:35:36.913Z,3.30
2024-01-19T08:38:08.761Z,3.50
2024-01-19T08:40:38.354Z,3.60
2024-01-19T08:43:07.972Z,3.60
2024-01-19T08:45:39.185Z,3.40
2024-01-19T08:48:09.147Z,3.80
2024-01-19T08:50:39.609Z,4.10
2024-01-19T08:53:09.481Z,4.30
2024-01-19T08:55:40.605Z,4.10
2024-01-19T08:58:10.211Z,4.00
2024-01-19T09:00:39.911Z,3.90
2024-01-19T09:03:09.616Z,4.00
2024-01-19T09:05:39.655Z,4.40
2024-01-19T09:08:09.448Z,4.50
2024-01-19T09:10:39.001Z,4.80
2024-01-19T09:13:08.651Z,5.20
2024-01-19T09:15:38.240Z,4.90
2024-01-19T09:18:08.770Z,4.70
2024-01-19T09:20:38.562Z,4.40
2024-01-19T09:23:08.149Z,4.50
2024-01-19T09:25:37.663Z,4.60
2024-01-19T09:28:07.354Z,4.20
2024-01-19T09:30:37.184Z,4.20
2024-01-19T09:33:06.868Z,3.90
2024-01-19T09:35:36.473Z,4.10
2024-01-19T09:38:06.184Z,4.30
2024-01-19T09:40:36.427Z,4.40
2024-01-19T09:43:06.249Z,4.70
2024-01-19T09:45:43.147Z,5.00
2024-01-19T09:48:15.976Z,5.00
2024-01-19T09:50:46.456Z,5.30
2024-01-19T09:53:25.082Z,5.00
2024-01-19T09:55:55.154Z,5.50
2024-01-19T09:58:26.552Z,5.20
2024-01-19T10:00:57.733Z,5.60
2024-01-19T10:03:30.379Z,5.70
2024-01-19T10:06:00.047Z,5.50
2024-01-19T10:08:30.212Z,5.80
2024-01-19T10:11:02.862Z,5.80
2024-01-19T10:13:31.803Z,6.10
2024-01-19T10:16:01.256Z,6.30
2024-01-19T10:18:31.714Z,5.30
2024-01-19T10:21:01.472Z,5.90
2024-01-19T10:23:31.158Z,5.90
2024-01-19T10:26:16.527Z,6.20
2024-01-19T10:28:46.060Z,6.30
2024-01-19T10:31:26.828Z,5.90
2024-01-19T10:33:58.599Z,5.90
2024-01-19T10:36:28.538Z,5.50
2024-01-19T10:39:01.145Z,5.60
2024-01-19T10:41:31.000Z,6.00
2024-01-19T10:44:18.574Z,6.70
2024-01-19T10:46:50.486Z,7.20
2024-01-19T10:49:20.894Z,7.90
2024-01-19T10:51:51.171Z,8.20
2024-01-19T10:54:24.282Z,8.20
2024-01-19T10:57:05.704Z,8.00
2024-01-19T10:59:36.156Z,8.20
2024-01-19T11:02:06.557Z,8.50
2024-01-19T11:04:39.489Z,8.60
2024-01-19T11:07:09.137Z,8.70
2024-01-19T11:09:40.622Z,8.70
2024-01-19T11:12:13.208Z,8.90
2024-01-19T11:14:45.738Z,9.10
2024-01-19T11:17:14.911Z,8.20
2024-01-19T11:19:44.480Z,7.80
2024-01-19T11:22:14.200Z,6.60
2024-01-19T11:24:46.731Z,6.70
2024-01-19T11:27:22.997Z,6.60
2024-01-19T11:29:55.571Z,7.10
2024-01-19T11:32:25.325Z,7.10
2024-01-19T11:34:54.995Z,7.40
2024-01-19T11:37:48.441Z,6.80
2024-01-19T11:40:30.899Z,6.90
2024-01-19T11:43:00.576Z,6.70
2024-01-19T11:45:40.726Z,6.80
2024-01-19T11:48:12.953Z,6.90
2024-01-19T11:50:48.759Z,6.70
2024-01-19T11:53:18.373Z,6.60
2024-01-19T11:55:50.257Z,6.50
2024-01-19T11:58:31.126Z,6.60
2024-01-19T12:01:05.309Z,6.00
2024-01-19T12:03:37.753Z,6.10
2024-01-19T12:06:09.000Z,6.40
2024-01-19T12:08:39.050Z,6.40
2024-01-19T12:11:11.222Z,6.60
2024-01-19T12:13:48.996Z,6.60
2024-01-19T12:16:14.169Z,6.70
2024-01-19T12:18:43.876Z,6.70
2024-01-19T12:21:13.577Z,7.00
2024-01-19T12:23:43.409Z,6.10
2024-01-19T12:26:13.385Z,6.00
2024-01-19T12:28:44.628Z,6.10
2024-01-19T12:31:39.028Z,5.20
2024-01-19T12:34:16.656Z,5.30
2024-01-19T12:36:46.877Z,5.80
2024-01-19T12:39:19.265Z,5.50
2024-01-19T12:41:54.339Z,4.90
2024-01-19T12:44:25.010Z,4.90
2024-01-19T12:46:55.120Z,5.30
2024-01-19T12:49:24.691Z,5.00
2024-01-19T12:51:54.877Z,5.20
2024-01-19T12:54:24.477Z,5.00
2024-01-19T12:56:55.231Z,5.20
2024-01-19T12:59:24.833Z,5.20
2024-01-19T13:01:55.568Z,5.10
2024-01-19T13:04:25.092Z,5.00
2024-01-19T13:06:54.831Z,5.00
2024-01-19T13:09:26.111Z,5.00
2024-01-19T13:11:57.227Z,4.80
2024-01-19T13:14:26.926Z,4.90
2024-01-19T13:16:58.641Z,4.50
2024-01-19T13:19:28.420Z,4.70
2024-01-19T13:22:00.802Z,4.50
2024-01-19T13:24:30.199Z,4.50
2024-01-19T13:27:02.470Z,4.40
2024-01-19T13:29:33.082Z,4.60
2024-01-19T13:32:04.407Z,4.60
2024-01-19T13:34:34.278Z,4.40
2024-01-19T13:37:04.016Z,4.30
2024-01-19T13:39:33.546Z,4.50
2024-01-19T13:42:04.347Z,4.40
2024-01-19T13:44:33.968Z,4.70
2024-01-19T13:47:04.788Z,4.70
2024-01-19T13:49:34.494Z,4.60
2024-01-19T13:52:04.703Z,4.50
2024-01-19T13:54:34.343Z,4.50
2024-01-19T13:57:03.874Z,4.50
2024-01-19T13:59:33.478Z,4.50
2024-01-19T14:02:03.189Z,4.50
2024-01-19T14:04:32.951Z,4.40
2024-01-19T14:07:05.700Z,4.50
2024-01-19T14:09:39.034Z,4.60
2024-01-19T14:12:09.656Z,4.50
2024-01-19T14:14:39.325Z,4.30
2024-01-19T14:17:09.834Z,4.30
2024-01-19T14:19:40.801Z,4.30
2024-01-19T14:22:10.633Z,4.60
2024-01-19T14:24:40.285Z,4.60
2024-01-19T14:27:10.413Z,4.80
2024-01-19T14:29:40.187Z,5.00
2024-01-19T14:32:09.909Z,4.90
2024-01-19T14:34:46.476Z,4.80
2024-01-19T14:37:12.467Z,4.70
2024-01-19T14:39:42.237Z,5.00
2024-01-19T14:42:12.312Z,4.50
2024-01-19T14:44:41.907Z,4.60
2024-01-19T14:47:11.796Z,4.70
2024-01-19T14:49:44.391Z,4.80
2024-01-19T14:52:14.504Z,4.70
2024-01-19T14:54:44.626Z,4.30
2024-01-19T14:57:14.388Z,4.30
2024-01-19T14:59:43.936Z,4.40
2024-01-19T15:02:15.798Z,4.30
2024-01-19T15:04:46.206Z,4.20
2024-01-19T15:07:17.584Z,4.40
2024-01-19T15:09:47.179Z,4.30
2024-01-19T15:12:16.777Z,4.50
2024-01-19T15:14:47.274Z,4.40
2024-01-19T15:17:16.995Z,4.40
2024-01-19T15:19:46.622Z,4.30
2024-01-19T15:22:16.267Z,4.30
2024-01-19T15:24:45.798Z,4.50
2024-01-19T15:27:15.622Z,4.50
2024-01-19T15:29:45.372Z,4.30
2024-01-19T15:32:15.057Z,4.40
2024-01-19T15:34:44.713Z,4.20
2024-01-19T15:37:15.264Z,4.20
2024-01-19T15:39:45.274Z,4.50
2024-01-19T15:42:14.970Z,4.60
2024-01-19T15:44:45.921Z,4.60
2024-01-19T15:47:16.294Z,4.60
2024-01-19T15:49:46.603Z,4.60
2024-01-19T15:52:16.273Z,4.80
2024-01-19T15:54:47.355Z,4.90
2024-01-19T15:57:16.875Z,4.80
2024-01-19T15:59:47.536Z,4.80
2024-01-19T16:02:17.146Z,4.70
2024-01-19T16:04:46.705Z,4.70
2024-01-19T16:07:16.305Z,4.70
2024-01-19T16:09:46.957Z,4.70
2024-01-19T16:12:17.124Z,4.70
2024-01-19T16:14:46.735Z,4.70
2024-01-19T16:17:16.283Z,4.70
2024-01-19T16:19:45.997Z,4.70
2024-01-19T16:22:15.608Z,4.70
2024-01-19T16:24:45.972Z,4.60
2024-01-19T16:27:15.666Z,4.60
2024-01-19T16:29:45.425Z,4.50
2024-01-19T16:32:15.191Z,4.50
2024-01-19T16:34:44.791Z,4.60
2024-01-19T16:37:14.403Z,4.70
2024-01-19T16:39:45.864Z,4.60
2024-01-19T16:42:16.041Z,4.50
2024-01-19T16:44:45.654Z,4.40
2024-01-19T16:47:15.204Z,4.40
2024-01-19T16:49:44.874Z,4.40
2024-01-19T16:52:14.645Z,4.40
2024-01-19T16:54:46.132Z,4.30
2024-01-19T16:57:15.868Z,4.40
2024-01-19T16:59:45.523Z,4.30
2024-01-19T17:02:15.192Z,4.30
2024-01-19T17:04:46.524Z,4.30
2024-01-19T17:07:16.334Z,4.30
2024-01-19T17:09:45.912Z,4.20
2024-01-19T17:12:15.441Z,4.20
2024-01-19T17:14:45.040Z,4.20
2024-01-19T17:17:14.756Z,4.20
2024-01-19T17:19:45.585Z,4.10
2024-01-19T17:22:15.184Z,4.20
2024-01-19T17:24:45.417Z,4.20
2024-01-19T17:27:15.397Z,4.20
2024-01-19T17:29:45.212Z,4.20
2024-01-19T17:32:15.271Z,4.10
2024-01-19T17:34:46.599Z,4.20
2024-01-19T17:37:16.636Z,4.10
2024-01-19T17:39:46.218Z,4.10
2024-01-19T17:42:15.825Z,4.00
2024-01-19T17:44:46.072Z,4.00
2024-01-19T17:47:15.722Z,4.00
2024-01-19T17:49:45.328Z,3.70
2024-01-19T17:52:15.095Z,3.80
2024-01-19T17:54:44.645Z,3.80
2024-01-19T17:57:14.236Z,3.80
2024-01-19T17:59:44.148Z,3.70
2024-01-19T18:02:14.870Z,3.60
2024-01-19T18:04:44.588Z,3.50
2024-01-19T18:07:14.434Z,3.50
2024-01-19T18:09:44.091Z,3.70
2024-01-19T18:12:13.853Z,3.40
2024-01-19T18:14:44.471Z,3.20
2024-01-19T18:17:14.372Z,3.20
2024-01-19T18:19:44.357Z,3.10
2024-01-19T18:22:15.940Z,3.20
2024-01-19T18:24:45.568Z,3.40
2024-01-19T18:27:15.843Z,3.30
2024-01-19T18:29:46.825Z,3.20
2024-01-19T18:32:18.170Z,3.30
2024-01-19T18:34:48.334Z,3.40
2024-01-19T18:37:18.148Z,3.20
2024-01-19T18:39:47.746Z,3.30
2024-01-19T18:42:17.440Z,3.20
2024-01-19T18:44:47.008Z,3.10
2024-01-19T18:47:16.749Z,3.10
2024-01-19T18:49:46.645Z,3.00
2024-01-19T18:52:16.468Z,2.80
2024-01-19T18:54:46.009Z,2.90
2024-01-19T18:57:16.525Z,2.80
2024-01-19T18:59:46.486Z,2.80
2024-01-19T19:02:18.025Z,2.80
2024-01-19T19:04:47.687Z,2.70
2024-01-19T19:07:19.186Z,2.70
2024-01-19T19:09:49.706Z,2.70
2024-01-19T19:12:20.733Z,2.70
2024-01-19T19:14:50.252Z,2.60
2024-01-19T19:17:20.334Z,2.70
2024-01-19T19:19:49.984Z,2.60
2024-01-19T19:22:21.193Z,2.50
2024-01-19T19:24:50.854Z,2.50
2024-01-19T19:27:20.392Z,2.50
2024-01-19T19:29:50.737Z,2.40
2024-01-19T19:32:20.417Z,2.50
2024-01-19T19:34:50.166Z,2.50
2024-01-19T19:37:19.729Z,2.40
2024-01-19T19:39:49.352Z,2.30
2024-01-19T19:42:20.538Z,2.30
2024-01-19T19:44:50.071Z,2.30
2024-01-19T19:47:19.741Z,2.30
2024-01-19T19:49:49.425Z,2.40
2024-01-19T19:52:19.481Z,2.40
2024-01-19T19:54:49.032Z,2.30
2024-01-19T19:57:18.790Z,2.30
2024-01-19T19:59:48.377Z,2.10
2024-01-19T20:02:19.223Z,2.20
2024-01-19T20:04:50.483Z,2.20
2024-01-19T20:07:20.112Z,2.30
2024-01-19T20:09:49.764Z,2.40
2024-01-19T20:12:19.412Z,2.30
2024-01-19T20:14:49.151Z,2.30
2024-01-19T20:17:19.089Z,2.10
2024-01-19T20:19:49.202Z,2.30
2024-01-19T20:22:20.594Z,2.30
2024-01-19T20:24:51.700Z,2.30
2024-01-19T20:27:21.367Z,2.10
2024-01-19T20:29:52.739Z,2.00
2024-01-19T20:32:22.421Z,1.90
2024-01-19T20:34:52.758Z,1.90
2024-01-19T20:37:22.893Z,2.00
2024-01-19T20:39:53.470Z,1.90
2024-01-19T20:42:23.077Z,1.90
2024-01-19T20:44:52.609Z,1.90
2024-01-19T20:47:22.490Z,1.80
2024-01-19T20:49:52.207Z,1.70
2024-01-19T20:52:21.861Z,2.00
2024-01-19T20:54:52.331Z,1.90
2024-01-19T20:57:21.871Z,1.80
2024-01-19T20:59:51.513Z,1.80
2024-01-19T21:02:21.146Z,1.70
2024-01-19T21:04:50.872Z,1.60
2024-01-19T21:07:20.590Z,1.60
2024-01-19T21:09:50.318Z,1.60
2024-01-19T21:12:21.482Z,1.50
2024-01-19T21:14:51.440Z,1.70
2024-01-19T21:17:21.213Z,1.70
2024-01-19T21:19:51.051Z,1.60
2024-01-19T21:22:22.466Z,1.40
2024-01-19T21:24:52.267Z,1.60
2024-01-19T21:27:21.819Z,1.30
2024-01-19T21:29:52.902Z,1.30
2024-01-19T21:32:22.650Z,1.40
2024-01-19T21:34:52.477Z,1.40
2024-01-19T21:37:22.033Z,1.30
2024-01-19T21:39:51.792Z,1.30
2024-01-19T21:42:22.414Z,1.30
2024-01-19T21:44:52.414Z,1.40
2024-01-19T21:47:22.902Z,1.40
2024-01-19T21:49:53.888Z,1.30
2024-01-19T21:52:24.263Z,1.20
2024-01-19T21:54:54.091Z,1.10
2024-01-19T21:57:23.720Z,1.20
2024-01-19T21:59:54.490Z,1.30
2024-01-19T22:02:24.886Z,1.30
2024-01-19T22:04:55.383Z,1.20
2024-01-19T22:07:25.144Z,1.20
2024-01-19T22:09:55.229Z,1.20
2024-01-19T22:12:24.809Z,1.20
2024-01-19T22:14:54.362Z,1.20
2024-01-19T22:17:24.055Z,1.10
2024-01-19T22:19:53.665Z,1.00
2024-01-19T22:22:23.518Z,0.90
2024-01-19T22:24:53.126Z,0.80
2024-01-19T22:27:22.806Z,0.90
2024-01-19T22:29:52.538Z,0.70
2024-01-19T22:32:22.723Z,0.90
2024-01-19T22:34:52.726Z,0.70
2024-01-19T22:37:22.309Z,0.60
2024-01-19T22:39:52.214Z,0.60
2024-01-19T22:42:21.899Z,0.60
2024-01-19T22:44:51.653Z,0.80
2024-01-19T22:47:21.295Z,0.70
2024-01-19T22:49:50.943Z,0.70
2024-01-19T22:52:22.302Z,0.70
2024-01-19T22:54:54.220Z,0.70
2024-01-19T22:57:23.868Z,0.70
2024-01-19T22:59:53.512Z,0.60
2024-01-19T23:02:23.643Z,0.40
2024-01-19T23:04:53.503Z,0.30
2024-01-19T23:07:23.330Z,0.30
2024-01-19T23:09:52.937Z,0.30
2024-01-19T23:12:23.917Z,0.40
2024-01-19T23:14:53.741Z,0.30
2024-01-19T23:17:23.540Z,0.30
2024-01-19T23:19:53.539Z,0.40
2024-01-19T23:22:23.685Z,0.40
2024-01-19T23:24:54.082Z,0.30
2024-01-19T23:27:23.783Z,0.10
2024-01-19T23:29:53.745Z,0.10
2024-01-19T23:32:24.037Z,0.30
2024-01-19T23:34:54.294Z,0.40
2024-01-19T23:37:24.857Z,0.40
2024-01-19T23:39:54.551Z,0.40
2024-01-19T23:42:24.546Z,0.50
2024-01-19T23:44:55.737Z,0.50
2024-01-19T23:47:25.356Z,0.50
2024-01-19T23:49:55.037Z,0.30
2024-01-19T23:52:24.695Z,0.30
2024-01-19T23:54:54.289Z,0.30
2024-01-19T23:57:23.965Z,0.20
2024-01-19T23:59:53.596Z,0.30
